createdAt,value
2022-10-15T00:00:14.058Z,94.50
2022-10-15T00:01:13.133Z,95.00
2022-10-15T00:02:13.654Z,95.60
2022-10-15T00:03:13.599Z,95.30
2022-10-15T00:04:23.643Z,95.10
2022-10-15T00:05:13.552Z,94.80
2022-10-15T00:07:33.511Z,94.70
2022-10-15T00:08:23.508Z,95.10
2022-10-15T00:09:13.487Z,95.40
2022-10-15T00:10:13.435Z,95.60
2022-10-15T00:11:13.414Z,96.10
2022-10-15T00:13:52.558Z,97.60
2022-10-15T00:14:33.422Z,97.80
2022-10-15T00:15:13.391Z,97.80
2022-10-15T00:16:17.365Z,97.40
2022-10-15T00:17:13.668Z,97.30
2022-10-15T00:18:13.984Z,97.50
2022-10-15T00:19:13.150Z,97.40
2022-10-15T00:20:13.386Z,96.80
2022-10-15T00:21:13.488Z,96.70
2022-10-15T00:23:35.823Z,96.10
2022-10-15T00:24:14.209Z,95.80
2022-10-15T00:25:13.273Z,96.00
2022-10-15T00:26:13.637Z,95.20
2022-10-15T00:27:14.123Z,95.10
2022-10-15T00:28:13.350Z,96.20
2022-10-15T00:29:13.699Z,98.30
2022-10-15T00:30:13.893Z,99.70
2022-10-15T00:31:14.083Z,100.00
2022-10-15T00:32:15.558Z,100.00
2022-10-15T00:33:18.869Z,100.00
2022-10-15T00:34:13.826Z,100.00
2022-10-15T00:35:14.176Z,100.00
2022-10-15T00:36:27.363Z,100.00
2022-10-15T00:37:47.925Z,100.00
2022-10-15T00:38:12.924Z,100.00
2022-10-15T00:39:12.997Z,100.00
2022-10-15T00:40:13.158Z,100.00
2022-10-15T00:41:13.214Z,100.00
2022-10-15T00:42:18.198Z,100.00
2022-10-15T00:43:13.285Z,100.00
2022-10-15T00:44:18.919Z,100.00
2022-10-15T00:45:13.043Z,100.00
2022-10-15T00:46:13.034Z,100.00
2022-10-15T00:48:15.189Z,100.00
2022-10-15T00:49:18.373Z,100.00
2022-10-15T00:50:13.554Z,100.00
2022-10-15T00:51:13.614Z,100.00
2022-10-15T00:52:13.697Z,100.00
2022-10-15T00:53:13.681Z,100.00
2022-10-15T00:54:13.777Z,100.00
2022-10-15T00:55:13.730Z,100.00
2022-10-15T00:56:14.035Z,100.00
2022-10-15T00:57:12.931Z,100.00
2022-10-15T00:59:13.292Z,100.00
2022-10-15T01:00:13.273Z,100.00
2022-10-15T01:01:13.199Z,100.00
2022-10-15T01:02:13.274Z,99.80
2022-10-15T01:03:13.132Z,99.90
2022-10-15T01:04:13.406Z,100.00
2022-10-15T01:05:13.404Z,100.00
2022-10-15T01:06:13.514Z,100.00
2022-10-15T01:07:13.592Z,99.90
2022-10-15T01:08:13.590Z,99.60
2022-10-15T01:09:13.690Z,99.00
2022-10-15T01:10:13.604Z,99.20
2022-10-15T01:11:13.781Z,99.00
2022-10-15T01:12:13.697Z,99.20
2022-10-15T01:13:13.664Z,99.20
2022-10-15T01:14:13.676Z,98.90
2022-10-15T01:15:13.599Z,99.20
2022-10-15T01:17:13.954Z,98.20
2022-10-15T01:18:13.163Z,98.10
2022-10-15T01:19:12.982Z,98.50
2022-10-15T01:20:12.787Z,98.20
2022-10-15T01:21:13.888Z,97.60
2022-10-15T01:22:14.207Z,97.90
2022-10-15T01:23:13.226Z,97.90
2022-10-15T01:24:13.340Z,97.50
2022-10-15T01:25:13.274Z,97.40
2022-10-15T01:26:13.110Z,98.00
2022-10-15T01:27:13.401Z,98.40
2022-10-15T01:28:13.435Z,98.90
2022-10-15T01:29:13.269Z,99.30
2022-10-15T01:30:14.602Z,99.20
2022-10-15T01:31:13.543Z,98.80
2022-10-15T01:32:13.539Z,99.10
2022-10-15T01:33:13.711Z,98.80
2022-10-15T01:34:17.255Z,98.20
2022-10-15T01:35:13.837Z,98.00
2022-10-15T01:36:13.806Z,98.70
2022-10-15T01:37:13.619Z,99.40
2022-10-15T01:38:13.573Z,99.90
2022-10-15T01:39:13.785Z,100.00
2022-10-15T01:40:13.850Z,99.80
2022-10-15T01:41:13.753Z,99.90
2022-10-15T01:42:13.673Z,100.00
2022-10-15T01:43:13.645Z,99.70
2022-10-15T01:44:13.918Z,99.50
2022-10-15T01:45:12.826Z,99.70
2022-10-15T01:46:13.873Z,100.00
2022-10-15T01:47:13.799Z,99.50
2022-10-15T01:48:13.894Z,100.00
2022-10-15T01:49:12.782Z,100.00
2022-10-15T01:50:13.713Z,100.00
2022-10-15T01:51:14.123Z,100.00
2022-10-15T01:52:13.053Z,100.00
2022-10-15T01:53:13.121Z,100.00
2022-10-15T01:54:13.037Z,100.00
2022-10-15T01:55:13.065Z,100.00
2022-10-15T01:56:13.151Z,100.00
2022-10-15T01:57:13.110Z,100.00
2022-10-15T01:58:12.899Z,100.00
2022-10-15T01:59:12.742Z,100.00
2022-10-15T02:00:13.554Z,100.00
2022-10-15T02:01:13.646Z,100.00
2022-10-15T02:02:13.626Z,100.00
2022-10-15T02:03:13.569Z,100.00
2022-10-15T02:04:13.477Z,100.00
2022-10-15T02:05:13.360Z,100.00
2022-10-15T02:06:13.628Z,100.00
2022-10-15T02:07:13.571Z,100.00
2022-10-15T02:08:13.900Z,100.00
2022-10-15T02:09:13.389Z,100.00
2022-10-15T02:10:13.485Z,100.00
2022-10-15T02:11:13.557Z,100.00
2022-10-15T02:12:13.664Z,100.00
2022-10-15T02:13:13.832Z,100.00
2022-10-15T02:14:14.183Z,100.00
2022-10-15T02:15:13.377Z,100.00
2022-10-15T02:16:13.351Z,100.00
2022-10-15T02:17:13.300Z,99.90
2022-10-15T02:18:13.300Z,100.00
2022-10-15T02:19:13.643Z,100.00
2022-10-15T02:20:13.689Z,100.00
2022-10-15T02:21:13.645Z,100.00
2022-10-15T02:22:13.846Z,100.00
2022-10-15T02:23:13.881Z,100.00
2022-10-15T02:24:13.155Z,100.00
2022-10-15T02:25:13.381Z,100.00
2022-10-15T02:26:13.270Z,100.00
2022-10-15T02:27:13.189Z,100.00
2022-10-15T02:28:13.403Z,100.00
2022-10-15T02:29:13.534Z,100.00
2022-10-15T02:30:13.826Z,100.00
2022-10-15T02:31:12.852Z,100.00
2022-10-15T02:32:13.813Z,100.00
2022-10-15T02:33:13.831Z,99.80
2022-10-15T02:34:13.841Z,99.20
2022-10-15T02:35:13.887Z,99.60
2022-10-15T02:36:14.045Z,99.80
2022-10-15T02:37:13.259Z,99.90
2022-10-15T02:39:13.216Z,100.00
2022-10-15T02:40:13.357Z,100.00
2022-10-15T02:41:13.346Z,100.00
2022-10-15T02:42:13.352Z,100.00
2022-10-15T02:43:13.139Z,100.00
2022-10-15T02:44:13.487Z,100.00
2022-10-15T02:45:13.547Z,100.00
2022-10-15T02:46:13.616Z,100.00
2022-10-15T02:47:13.601Z,100.00
2022-10-15T02:48:13.753Z,98.60
2022-10-15T02:49:14.061Z,98.40
2022-10-15T02:50:13.151Z,98.50
2022-10-15T02:51:13.172Z,98.50
2022-10-15T02:52:13.065Z,98.90
2022-10-15T02:53:13.032Z,98.30
2022-10-15T02:54:13.196Z,96.90
2022-10-15T02:55:13.052Z,97.80
2022-10-15T02:56:13.055Z,97.80
2022-10-15T02:57:12.972Z,99.00
2022-10-15T02:58:12.841Z,99.40
2022-10-15T02:59:12.834Z,98.80
2022-10-15T03:00:13.829Z,99.20
2022-10-15T03:01:13.949Z,98.60
2022-10-15T03:02:15.436Z,97.50
2022-10-15T03:03:13.633Z,97.10
2022-10-15T03:04:12.924Z,96.70
2022-10-15T03:05:12.773Z,97.30
2022-10-15T03:06:13.593Z,97.60
2022-10-15T03:07:13.427Z,97.90
2022-10-15T03:08:13.440Z,98.50
2022-10-15T03:09:13.539Z,97.80
2022-10-15T03:10:13.579Z,97.40
2022-10-15T03:11:13.581Z,97.10
2022-10-15T03:12:13.528Z,96.30
2022-10-15T03:13:13.453Z,95.70
2022-10-15T03:14:13.496Z,96.60
2022-10-15T03:15:13.455Z,97.10
2022-10-15T03:16:13.375Z,97.20
2022-10-15T03:17:13.361Z,97.00
2022-10-15T03:18:13.382Z,97.40
2022-10-15T03:19:13.441Z,98.00
2022-10-15T03:20:13.300Z,97.90
2022-10-15T03:21:13.328Z,97.70
2022-10-15T03:22:13.710Z,97.80
2022-10-15T03:23:13.884Z,98.60
2022-10-15T03:24:14.008Z,98.50
2022-10-15T03:25:12.930Z,98.10
2022-10-15T03:26:12.969Z,97.70
2022-10-15T03:27:13.321Z,97.60
2022-10-15T03:28:13.291Z,98.30
2022-10-15T03:29:13.405Z,98.50
2022-10-15T03:30:13.748Z,97.00
2022-10-15T03:31:13.683Z,96.20
2022-10-15T03:32:13.930Z,97.10
2022-10-15T03:33:12.978Z,98.20
2022-10-15T03:34:12.900Z,98.10
2022-10-15T03:35:13.087Z,97.90
2022-10-15T03:36:13.001Z,98.70
2022-10-15T03:37:12.976Z,99.70
2022-10-15T03:38:13.174Z,100.00
2022-10-15T03:39:12.964Z,99.90
2022-10-15T03:40:14.589Z,99.10
2022-10-15T03:41:13.864Z,99.50
2022-10-15T03:42:13.819Z,100.00
2022-10-15T03:43:14.135Z,100.00
2022-10-15T03:44:13.424Z,100.00
2022-10-15T03:45:13.411Z,100.00
2022-10-15T03:46:13.400Z,100.00
2022-10-15T03:47:14.143Z,100.00
2022-10-15T03:48:13.067Z,100.00
2022-10-15T03:49:13.201Z,100.00
2022-10-15T03:50:13.210Z,100.00
2022-10-15T03:51:15.662Z,100.00
2022-10-15T03:52:13.696Z,100.00
2022-10-15T03:53:13.627Z,99.90
2022-10-15T03:54:13.842Z,99.70
2022-10-15T03:55:13.714Z,99.50
2022-10-15T03:56:13.822Z,100.00
2022-10-15T03:57:13.963Z,99.70
2022-10-15T03:58:13.126Z,99.90
2022-10-15T03:59:13.326Z,100.00
2022-10-15T04:00:13.489Z,100.00
2022-10-15T04:01:13.656Z,99.80
2022-10-15T04:02:13.645Z,99.40
2022-10-15T04:03:13.520Z,99.20
2022-10-15T04:04:13.571Z,99.00
2022-10-15T04:05:13.480Z,99.10
2022-10-15T04:06:13.684Z,99.20
2022-10-15T04:07:14.085Z,99.60
2022-10-15T04:08:12.971Z,99.70
2022-10-15T04:09:12.983Z,99.80
2022-10-15T04:10:12.957Z,99.60
2022-10-15T04:11:13.186Z,99.50
2022-10-15T04:12:13.461Z,99.80
2022-10-15T04:13:13.443Z,99.40
2022-10-15T04:14:13.401Z,98.90
2022-10-15T04:15:13.265Z,98.40
2022-10-15T04:16:13.245Z,98.20
2022-10-15T04:17:13.575Z,97.80
2022-10-15T04:18:13.873Z,97.90
2022-10-15T04:19:13.773Z,97.70
2022-10-15T04:20:13.694Z,97.40
2022-10-15T04:21:13.998Z,97.90
2022-10-15T04:22:12.865Z,98.80
2022-10-15T04:23:14.050Z,98.60
2022-10-15T04:24:12.995Z,97.90
2022-10-15T04:25:12.875Z,97.30
2022-10-15T04:26:14.039Z,97.20
2022-10-15T04:27:12.853Z,97.10
2022-10-15T04:28:13.691Z,97.50
2022-10-15T04:29:13.494Z,98.20
2022-10-15T04:30:13.414Z,98.50
2022-10-15T04:31:13.572Z,97.90
2022-10-15T04:32:13.733Z,97.20
2022-10-15T04:33:13.711Z,98.00
2022-10-15T04:34:13.990Z,97.90
2022-10-15T04:35:13.598Z,98.00
2022-10-15T04:36:13.639Z,97.70
2022-10-15T04:37:13.525Z,96.70
2022-10-15T04:38:13.775Z,96.70
2022-10-15T04:39:14.692Z,97.80
2022-10-15T04:40:14.010Z,97.70
2022-10-15T04:41:12.881Z,97.80
2022-10-15T04:42:13.932Z,97.60
2022-10-15T04:43:12.965Z,97.90
2022-10-15T04:44:13.161Z,98.10
2022-10-15T04:45:13.049Z,98.20
2022-10-15T04:46:12.913Z,98.40
2022-10-15T04:47:12.936Z,97.80
2022-10-15T04:48:13.238Z,97.60
2022-10-15T04:49:13.434Z,96.80
2022-10-15T04:50:13.550Z,96.90
2022-10-15T04:51:13.529Z,96.80
2022-10-15T04:52:13.609Z,97.70
2022-10-15T04:53:13.572Z,98.20
2022-10-15T04:54:13.990Z,97.60
2022-10-15T04:55:12.938Z,97.40
2022-10-15T04:56:13.084Z,97.60
2022-10-15T04:57:13.037Z,97.40
2022-10-15T04:58:13.191Z,97.10
2022-10-15T04:59:13.517Z,97.50
2022-10-15T05:00:13.648Z,97.70
2022-10-15T05:01:13.798Z,97.80
2022-10-15T05:02:14.144Z,98.00
2022-10-15T05:03:13.112Z,98.40
2022-10-15T05:04:13.069Z,98.40
2022-10-15T05:05:13.134Z,98.20
2022-10-15T05:06:13.317Z,98.60
2022-10-15T05:07:13.266Z,98.20
2022-10-15T05:08:13.202Z,98.20
2022-10-15T05:09:13.096Z,97.70
2022-10-15T05:10:13.007Z,97.80
2022-10-15T05:11:14.493Z,97.60
2022-10-15T05:12:13.731Z,97.70
2022-10-15T05:13:13.547Z,98.20
2022-10-15T05:14:13.969Z,98.10
2022-10-15T05:15:12.822Z,99.00
2022-10-15T05:16:13.852Z,98.60
2022-10-15T05:17:14.032Z,98.90
2022-10-15T05:18:13.020Z,99.20
2022-10-15T05:19:13.985Z,99.10
2022-10-15T05:20:12.997Z,98.60
2022-10-15T05:21:13.283Z,99.00
2022-10-15T05:22:13.622Z,98.70
2022-10-15T05:23:13.525Z,98.60
2022-10-15T05:24:13.335Z,98.20
2022-10-15T05:25:13.392Z,99.10
2022-10-15T05:26:13.401Z,98.50
2022-10-15T05:27:13.748Z,98.70
2022-10-15T05:28:13.721Z,99.00
2022-10-15T05:29:14.007Z,98.90
2022-10-15T05:30:13.064Z,98.50
2022-10-15T05:31:18.359Z,98.10
2022-10-15T05:32:13.106Z,97.20
2022-10-15T05:33:13.256Z,97.10
2022-10-15T05:34:13.276Z,97.10
2022-10-15T05:35:13.268Z,96.40
2022-10-15T05:36:13.731Z,96.90
2022-10-15T05:37:14.255Z,97.60
2022-10-15T05:38:13.495Z,97.50
2022-10-15T05:39:13.297Z,96.60
2022-10-15T05:40:13.417Z,95.30
2022-10-15T05:41:13.340Z,95.90
2022-10-15T05:42:13.774Z,94.00
2022-10-15T05:43:13.718Z,93.80
2022-10-15T05:44:13.785Z,93.80
2022-10-15T05:45:14.073Z,93.40
2022-10-15T05:46:13.011Z,92.60
2022-10-15T05:47:13.034Z,92.90
2022-10-15T05:48:12.940Z,94.10
2022-10-15T05:49:13.080Z,93.90
2022-10-15T05:50:12.983Z,93.30
2022-10-15T05:51:12.956Z,92.80
2022-10-15T05:52:12.866Z,92.30
2022-10-15T05:53:14.070Z,92.00
2022-10-15T05:54:13.095Z,92.70
2022-10-15T05:55:12.990Z,93.50
2022-10-15T05:56:12.956Z,92.90
2022-10-15T05:57:12.910Z,92.70
2022-10-15T05:58:12.965Z,93.60
2022-10-15T05:59:12.840Z,94.20
2022-10-15T06:00:14.173Z,92.90
2022-10-15T06:01:14.432Z,92.60
2022-10-15T06:02:13.421Z,93.50
2022-10-15T06:03:14.089Z,93.70
2022-10-15T06:04:13.224Z,93.30
2022-10-15T06:05:13.136Z,93.80
2022-10-15T06:06:13.034Z,95.30
2022-10-15T06:07:13.212Z,96.50
2022-10-15T06:08:12.988Z,97.10
2022-10-15T06:09:13.025Z,97.10
2022-10-15T06:10:13.034Z,96.80
2022-10-15T06:11:12.985Z,95.90
2022-10-15T06:12:13.075Z,95.30
2022-10-15T06:13:13.302Z,94.90
2022-10-15T06:14:13.308Z,94.30
2022-10-15T06:15:13.356Z,94.20
2022-10-15T06:16:14.723Z,94.10
2022-10-15T06:17:13.629Z,93.30
2022-10-15T06:18:13.766Z,92.00
2022-10-15T06:19:13.831Z,91.40
2022-10-15T06:20:13.695Z,91.70
2022-10-15T06:21:13.816Z,92.40
2022-10-15T06:22:14.020Z,92.90
2022-10-15T06:23:13.211Z,93.60
2022-10-15T06:24:13.169Z,94.00
2022-10-15T06:25:13.263Z,94.30
2022-10-15T06:26:13.279Z,94.10
2022-10-15T06:27:13.292Z,94.00
2022-10-15T06:28:13.283Z,93.70
2022-10-15T06:29:13.511Z,94.10
2022-10-15T06:30:13.681Z,93.00
2022-10-15T06:31:13.617Z,92.70
2022-10-15T06:32:13.629Z,93.60
2022-10-15T06:33:13.590Z,93.40
2022-10-15T06:34:13.873Z,92.80
2022-10-15T06:35:14.014Z,92.00
2022-10-15T06:36:12.810Z,91.50
2022-10-15T06:37:13.859Z,91.60
2022-10-15T06:38:13.795Z,92.60
2022-10-15T06:39:13.877Z,93.10
2022-10-15T06:40:15.036Z,92.70
2022-10-15T06:41:12.941Z,92.30
2022-10-15T06:42:13.241Z,91.80
2022-10-15T06:43:13.163Z,91.10
2022-10-15T06:44:13.515Z,90.80
2022-10-15T06:45:15.797Z,91.60
2022-10-15T06:46:13.161Z,91.70
2022-10-15T06:47:13.224Z,92.50
2022-10-15T06:48:13.724Z,92.90
2022-10-15T06:49:13.628Z,92.60
2022-10-15T06:50:13.835Z,92.20
2022-10-15T06:51:14.025Z,92.50
2022-10-15T06:52:13.374Z,92.90
2022-10-15T06:53:13.366Z,93.80
2022-10-15T06:54:13.433Z,93.60
2022-10-15T06:55:13.438Z,94.30
2022-10-15T06:56:13.364Z,94.60
2022-10-15T06:57:13.289Z,94.90
2022-10-15T06:58:13.626Z,94.70
2022-10-15T06:59:13.626Z,94.30
2022-10-15T07:00:13.907Z,94.10
2022-10-15T07:01:13.295Z,94.40
2022-10-15T07:02:13.457Z,93.80
2022-10-15T07:03:13.471Z,93.20
2022-10-15T07:04:13.392Z,94.30
2022-10-15T07:05:13.293Z,93.70
2022-10-15T07:06:13.393Z,93.60
2022-10-15T07:07:13.275Z,93.30
2022-10-15T07:08:16.967Z,93.10
2022-10-15T07:09:13.360Z,93.60
2022-10-15T07:10:13.235Z,93.30
2022-10-15T07:11:13.293Z,93.10
2022-10-15T07:12:13.183Z,92.40
2022-10-15T07:13:13.614Z,93.20
2022-10-15T07:14:13.690Z,92.30
2022-10-15T07:15:14.136Z,91.50
2022-10-15T07:16:13.218Z,91.10
2022-10-15T07:17:13.291Z,92.00
2022-10-15T07:18:40.090Z,91.60
2022-10-15T07:19:13.103Z,91.50
2022-10-15T07:20:12.959Z,91.20
2022-10-15T07:21:13.001Z,91.70
2022-10-15T07:22:13.267Z,92.20
2022-10-15T07:23:13.186Z,92.80
2022-10-15T07:24:13.401Z,93.10
2022-10-15T07:25:13.389Z,93.60
2022-10-15T07:26:13.291Z,92.70
2022-10-15T07:27:19.429Z,92.10
2022-10-15T07:28:13.628Z,92.70
2022-10-15T07:29:13.604Z,91.90
2022-10-15T07:30:13.748Z,92.70
2022-10-15T07:31:13.973Z,92.90
2022-10-15T07:32:13.148Z,93.70
2022-10-15T07:33:13.339Z,94.50
2022-10-15T07:34:14.144Z,94.40
2022-10-15T07:35:14.456Z,94.00
2022-10-15T07:36:13.684Z,94.50
2022-10-15T07:37:14.212Z,94.20
2022-10-15T07:38:13.119Z,93.80
2022-10-15T07:39:13.392Z,93.60
2022-10-15T07:40:15.911Z,94.00
2022-10-15T07:41:13.101Z,94.80
2022-10-15T07:43:13.265Z,93.90
2022-10-15T07:44:13.270Z,93.60
2022-10-15T07:45:13.438Z,94.00
2022-10-15T07:46:14.552Z,94.00
2022-10-15T07:47:14.072Z,93.60
2022-10-15T07:48:13.496Z,93.10
2022-10-15T07:49:13.856Z,92.80
2022-10-15T07:50:13.849Z,91.80
2022-10-15T07:51:13.709Z,91.90
2022-10-15T07:52:13.673Z,91.30
2022-10-15T07:53:13.577Z,90.90
2022-10-15T07:54:13.606Z,91.90
2022-10-15T07:55:13.616Z,92.30
2022-10-15T07:56:13.757Z,91.60
2022-10-15T07:57:13.626Z,90.10
2022-10-15T07:58:13.662Z,89.90
2022-10-15T07:59:13.839Z,89.70
2022-10-15T08:00:13.678Z,89.00
2022-10-15T08:01:13.813Z,88.80
2022-10-15T08:02:14.203Z,89.10
2022-10-15T08:03:13.313Z,89.80
2022-10-15T08:04:13.403Z,89.20
2022-10-15T08:05:13.358Z,87.40
2022-10-15T08:06:13.440Z,87.10
2022-10-15T08:07:13.690Z,87.10
2022-10-15T08:08:13.939Z,87.50
2022-10-15T08:09:12.840Z,87.50
2022-10-15T08:10:13.844Z,87.30
2022-10-15T08:11:14.057Z,87.40
2022-10-15T08:12:13.120Z,87.00
2022-10-15T08:13:13.419Z,86.90
2022-10-15T08:14:18.792Z,86.50
2022-10-15T08:15:13.722Z,85.80
2022-10-15T08:16:14.352Z,86.20
2022-10-15T08:17:13.176Z,86.20
2022-10-15T08:18:12.980Z,86.90
2022-10-15T08:19:13.038Z,86.40
2022-10-15T08:20:13.027Z,85.80
2022-10-15T08:21:12.931Z,86.50
2022-10-15T08:22:13.082Z,86.50
2022-10-15T08:23:12.885Z,86.60
2022-10-15T08:24:14.089Z,86.00
2022-10-15T08:25:13.202Z,86.00
2022-10-15T08:26:13.319Z,86.20
2022-10-15T08:27:13.285Z,86.00
2022-10-15T08:28:13.618Z,85.90
2022-10-15T08:29:13.780Z,85.30
2022-10-15T08:30:14.062Z,84.50
2022-10-15T08:31:12.964Z,84.20
2022-10-15T08:32:13.152Z,83.30
2022-10-15T08:33:13.168Z,83.90
2022-10-15T08:34:13.161Z,83.40
2022-10-15T08:35:13.292Z,83.40
2022-10-15T08:36:13.140Z,83.30
2022-10-15T08:38:16.108Z,84.00
2022-10-15T08:39:13.113Z,84.60
2022-10-15T08:40:18.030Z,84.90
2022-10-15T08:41:12.875Z,85.10
2022-10-15T08:42:13.929Z,83.80
2022-10-15T08:43:12.780Z,84.20
2022-10-15T08:44:14.022Z,83.00
2022-10-15T08:45:13.250Z,83.40
2022-10-15T08:46:13.372Z,82.70
2022-10-15T08:47:13.730Z,83.40
2022-10-15T08:48:13.661Z,83.50
2022-10-15T08:49:13.691Z,83.90
2022-10-15T08:50:13.669Z,84.30
2022-10-15T08:51:13.518Z,84.10
2022-10-15T08:52:13.748Z,83.70
2022-10-15T08:53:14.432Z,83.70
2022-10-15T08:54:13.288Z,84.20
2022-10-15T08:55:13.413Z,83.80
2022-10-15T08:56:13.750Z,83.10
2022-10-15T08:57:13.793Z,82.50
2022-10-15T08:58:13.711Z,81.70
2022-10-15T08:59:14.064Z,81.70
2022-10-15T09:00:18.074Z,82.00
2022-10-15T09:01:13.427Z,82.00
2022-10-15T09:02:13.681Z,81.50
2022-10-15T09:03:13.779Z,81.60
2022-10-15T09:04:13.998Z,81.00
2022-10-15T09:05:13.087Z,81.10
2022-10-15T09:06:18.178Z,79.90
2022-10-15T09:07:13.139Z,80.20
2022-10-15T09:08:13.486Z,80.60
2022-10-15T09:09:13.443Z,80.00
2022-10-15T09:10:13.517Z,81.60
2022-10-15T09:11:13.803Z,80.40
2022-10-15T09:12:13.915Z,80.60
2022-10-15T09:13:16.235Z,80.60
2022-10-15T09:14:23.918Z,80.20
2022-10-15T09:15:13.213Z,80.20
2022-10-15T09:16:13.393Z,79.40
2022-10-15T09:17:13.361Z,79.10
2022-10-15T09:18:13.586Z,79.50
2022-10-15T09:19:13.491Z,79.70
2022-10-15T09:20:13.583Z,79.50
2022-10-15T09:21:13.566Z,78.30
2022-10-15T09:22:13.600Z,78.40
2022-10-15T09:23:13.803Z,77.90
2022-10-15T09:24:13.719Z,78.30
2022-10-15T09:26:13.993Z,77.70
2022-10-15T09:27:12.879Z,77.90
2022-10-15T09:28:13.803Z,77.80
2022-10-15T09:29:41.150Z,77.50
2022-10-15T09:30:13.183Z,76.70
2022-10-15T09:31:13.411Z,77.00
2022-10-15T09:32:13.601Z,76.70
2022-10-15T09:33:13.559Z,76.50
2022-10-15T09:34:13.495Z,76.20
2022-10-15T09:35:13.394Z,75.50
2022-10-15T09:36:13.349Z,75.10
2022-10-15T09:37:13.521Z,73.70
2022-10-15T09:38:13.525Z,73.60
2022-10-15T09:39:13.409Z,73.60
2022-10-15T09:40:13.502Z,73.00
2022-10-15T09:41:13.369Z,72.80
2022-10-15T09:42:13.248Z,71.80
2022-10-15T09:43:13.283Z,70.50
2022-10-15T09:44:13.342Z,69.70
2022-10-15T09:45:13.451Z,67.10
2022-10-15T09:46:13.573Z,66.20
2022-10-15T09:47:13.522Z,66.70
2022-10-15T09:48:13.429Z,69.60
2022-10-15T09:49:13.545Z,69.80
2022-10-15T09:50:13.765Z,68.20
2022-10-15T09:51:24.098Z,64.30
2022-10-15T09:52:13.056Z,61.20
2022-10-15T09:53:13.258Z,58.10
2022-10-15T09:54:13.273Z,58.60
2022-10-15T09:55:18.229Z,56.80
2022-10-15T09:56:13.138Z,54.90
2022-10-15T09:57:13.282Z,54.90
2022-10-15T09:58:13.273Z,53.50
2022-10-15T09:59:13.314Z,54.20
2022-10-15T10:00:13.286Z,53.10
2022-10-15T10:01:18.313Z,51.80
2022-10-15T10:02:24.504Z,52.70
2022-10-15T10:03:13.898Z,54.80
2022-10-15T10:04:14.353Z,59.10
2022-10-15T10:05:23.676Z,65.50
2022-10-15T10:06:14.012Z,67.10
2022-10-15T10:07:13.134Z,67.80
2022-10-15T10:08:13.066Z,66.50
2022-10-15T10:09:15.852Z,63.90
2022-10-15T10:10:13.837Z,65.80
2022-10-15T10:11:14.250Z,66.20
2022-10-15T10:12:23.110Z,66.80
2022-10-15T10:13:16.746Z,66.00
2022-10-15T10:14:13.659Z,66.00
2022-10-15T10:15:13.577Z,66.20
2022-10-15T10:16:13.592Z,67.40
2022-10-15T10:17:25.325Z,68.00
2022-10-15T10:18:13.409Z,69.80
2022-10-15T10:19:13.474Z,69.70
2022-10-15T10:20:13.401Z,70.70
2022-10-15T10:21:13.791Z,71.00
2022-10-15T10:22:14.273Z,70.20
2022-10-15T10:23:23.942Z,71.80
2022-10-15T10:24:13.039Z,73.20
2022-10-15T10:25:46.406Z,74.30
2022-10-15T10:26:13.909Z,75.30
2022-10-15T10:27:13.826Z,77.50
2022-10-15T10:28:14.572Z,78.90
2022-10-15T10:29:45.128Z,80.80
2022-10-15T10:31:21.575Z,82.30
2022-10-15T10:32:13.891Z,82.10
2022-10-15T10:33:12.973Z,82.00
2022-10-15T10:34:13.008Z,82.50
2022-10-15T10:35:13.114Z,81.80
2022-10-15T10:36:13.377Z,82.50
2022-10-15T10:37:13.678Z,82.30
2022-10-15T10:38:13.843Z,82.90
2022-10-15T10:39:13.901Z,81.70
2022-10-15T10:40:13.323Z,81.70
2022-10-15T10:41:13.589Z,81.30
2022-10-15T10:42:13.789Z,80.70
2022-10-15T10:43:14.034Z,79.50
2022-10-15T10:44:13.248Z,79.60
2022-10-15T10:45:17.713Z,78.60
2022-10-15T10:46:13.859Z,78.40
2022-10-15T10:47:13.840Z,78.00
2022-10-15T10:48:14.229Z,78.70
2022-10-15T10:49:13.886Z,78.00
2022-10-15T10:50:13.293Z,77.80
2022-10-15T10:51:16.643Z,77.60
2022-10-15T10:52:13.959Z,78.40
2022-10-15T10:53:18.242Z,79.30
2022-10-15T10:54:13.534Z,77.40
2022-10-15T10:55:13.447Z,77.90
2022-10-15T10:56:13.643Z,77.70
2022-10-15T10:57:14.264Z,77.10
2022-10-15T10:58:13.380Z,77.40
2022-10-15T10:59:13.532Z,79.60
2022-10-15T11:00:13.486Z,80.40
2022-10-15T11:01:13.740Z,80.10
2022-10-15T11:02:12.810Z,81.50
2022-10-15T11:03:13.880Z,81.90
2022-10-15T11:04:16.926Z,81.70
2022-10-15T11:05:13.367Z,82.80
2022-10-15T11:06:13.234Z,83.30
2022-10-15T11:07:15.524Z,84.10
2022-10-15T11:08:13.945Z,83.00
2022-10-15T11:09:13.139Z,83.30
2022-10-15T11:10:13.021Z,82.80
2022-10-15T11:11:13.509Z,82.80
2022-10-15T11:12:14.096Z,82.20
2022-10-15T11:13:13.368Z,80.90
2022-10-15T11:14:13.397Z,81.70
2022-10-15T11:15:13.287Z,81.70
2022-10-15T11:16:13.512Z,81.70
2022-10-15T11:17:13.579Z,81.60
2022-10-15T11:18:13.553Z,82.60
2022-10-15T11:19:19.928Z,82.60
2022-10-15T11:20:32.081Z,82.60
2022-10-15T11:21:13.619Z,82.80
2022-10-15T11:22:13.747Z,84.10
2022-10-15T11:23:13.715Z,83.90
2022-10-15T11:25:13.031Z,83.10
2022-10-15T11:26:23.051Z,83.30
2022-10-15T11:27:13.136Z,83.60
2022-10-15T11:28:13.042Z,84.20
2022-10-15T11:29:34.560Z,84.40
2022-10-15T11:30:13.716Z,84.00
2022-10-15T11:31:13.797Z,84.90
2022-10-15T11:32:16.606Z,85.30
2022-10-15T11:33:13.499Z,84.50
2022-10-15T11:34:13.003Z,83.40
2022-10-15T11:35:17.121Z,82.50
2022-10-15T11:36:13.571Z,83.20
2022-10-15T11:37:13.512Z,79.90
2022-10-15T11:38:13.381Z,76.80
2022-10-15T11:39:13.394Z,74.80
2022-10-15T11:40:14.529Z,72.20
2022-10-15T11:41:13.739Z,73.40
2022-10-15T11:42:13.968Z,74.80
2022-10-15T11:43:12.973Z,74.60
2022-10-15T11:44:13.117Z,74.60
2022-10-15T11:45:13.367Z,75.30
2022-10-15T11:46:13.796Z,73.50
2022-10-15T11:47:19.069Z,74.50
2022-10-15T11:48:12.915Z,73.90
2022-10-15T11:49:12.854Z,73.80
2022-10-15T11:50:13.771Z,74.00
2022-10-15T11:51:15.810Z,74.60
2022-10-15T11:52:13.686Z,73.80
2022-10-15T11:53:28.708Z,74.90
2022-10-15T11:54:14.048Z,74.50
2022-10-15T11:55:13.191Z,72.80
2022-10-15T11:56:19.466Z,70.90
2022-10-15T11:57:13.323Z,71.20
2022-10-15T11:58:30.394Z,67.50
2022-10-15T11:59:13.679Z,66.00
2022-10-15T12:00:13.642Z,69.40
2022-10-15T12:01:13.517Z,71.40
2022-10-15T12:02:13.581Z,72.40
2022-10-15T12:03:14.079Z,74.10
2022-10-15T12:04:23.603Z,74.50
2022-10-15T12:05:13.788Z,74.20
2022-10-15T12:06:14.048Z,71.70
2022-10-15T12:07:14.250Z,71.80
2022-10-15T12:08:14.117Z,70.90
2022-10-15T12:09:13.129Z,72.00
2022-10-15T12:10:13.305Z,70.30
2022-10-15T12:11:13.283Z,70.70
2022-10-15T12:12:13.250Z,72.20
2022-10-15T12:13:13.477Z,72.40
2022-10-15T12:14:13.695Z,72.80
2022-10-15T12:15:13.590Z,72.10
2022-10-15T12:16:13.758Z,74.00
2022-10-15T12:17:14.392Z,74.60
2022-10-15T12:18:13.424Z,75.20
2022-10-15T12:19:13.310Z,75.00
2022-10-15T12:20:13.282Z,76.30
2022-10-15T12:21:13.433Z,75.80
2022-10-15T12:22:13.468Z,76.10
2022-10-15T12:23:13.850Z,76.00
2022-10-15T12:24:14.035Z,75.40
2022-10-15T12:25:18.120Z,75.70
2022-10-15T12:27:18.233Z,76.30
2022-10-15T12:28:13.125Z,77.00
2022-10-15T12:29:13.113Z,76.40
2022-10-15T12:30:13.194Z,76.30
2022-10-15T12:31:13.212Z,75.80
2022-10-15T12:32:13.134Z,77.20
2022-10-15T12:34:16.822Z,78.00
2022-10-15T12:35:14.135Z,78.60
2022-10-15T12:36:13.288Z,78.50
2022-10-15T12:37:13.239Z,78.40
2022-10-15T12:38:13.505Z,78.50
2022-10-15T12:39:27.810Z,79.30
2022-10-15T12:40:13.467Z,78.30
2022-10-15T12:41:13.663Z,77.50
2022-10-15T12:42:14.113Z,77.00
2022-10-15T12:43:13.315Z,77.80
2022-10-15T12:44:43.348Z,79.10
2022-10-15T12:45:13.572Z,78.90
2022-10-15T12:46:14.074Z,79.50
2022-10-15T12:47:13.348Z,80.30
2022-10-15T12:48:14.732Z,80.00
2022-10-15T12:49:13.930Z,79.50
2022-10-15T12:50:13.191Z,80.10
2022-10-15T12:51:13.427Z,79.50
2022-10-15T12:52:13.542Z,78.70
2022-10-15T12:53:13.501Z,78.60
2022-10-15T12:54:13.516Z,78.00
2022-10-15T12:55:13.497Z,77.30
2022-10-15T12:56:13.667Z,77.90
2022-10-15T12:57:13.948Z,77.70
2022-10-15T12:58:13.235Z,78.30
2022-10-15T12:59:13.390Z,79.20
2022-10-15T13:00:13.275Z,79.80
2022-10-15T13:01:13.563Z,79.70
2022-10-15T13:02:13.638Z,78.90
2022-10-15T13:03:14.051Z,78.00